Time;durP1;ratioP1;P1;durP2;ratioP2;P2;SDS_P1;SDS_P2;PMS_P1;PMS_P2;Temp;Humidity;BMP_temperature;BMP_pressure;BME280_temperature;BME280_humidity;BME280_pressure;Samples;Min_cycle;Max_cycle;Signal;HPM_P1;HPM_P2
2024/04/14 00:00:54;;;;;;;9.63;2.65;;;14.10;99.90;;;;;;5507120;26;20005;-73
2024/04/14 00:03:20;;;;;;;13.23;2.97;;;14.10;99.90;;;;;;5500395;26;20016;-73
2024/04/14 00:06:06;;;;;;;8.40;2.63;;;14.10;99.90;;;;;;5476214;26;20006;-74
2024/04/14 00:08:31;;;;;;;9.65;2.95;;;14.00;99.90;;;;;;5505004;26;20017;-74
2024/04/14 00:10:58;;;;;;;6.55;2.50;;;13.90;99.90;;;;;;5510706;26;20434;-74
2024/04/14 00:13:23;;;;;;;8.68;3.03;;;13.90;99.90;;;;;;5497435;26;20005;-73
2024/04/14 00:15:58;;;;;;;11.45;2.95;;;13.90;99.90;;;;;;5504066;26;20007;-73
2024/04/14 00:18:24;;;;;;;13.88;4.43;;;13.80;99.90;;;;;;5498595;26;20046;-73
2024/04/14 00:20:50;;;;;;;11.52;2.95;;;13.80;99.90;;;;;;5498817;26;20599;-73
2024/04/14 00:23:15;;;;;;;10.48;2.75;;;13.70;99.90;;;;;;5481800;26;20002;-73
2024/04/14 00:25:42;;;;;;;9.50;2.55;;;13.80;99.90;;;;;;5495390;26;20013;-73
2024/04/14 00:28:08;;;;;;;9.45;2.50;;;13.70;99.90;;;;;;5509329;26;20088;-74
2024/04/14 00:30:34;;;;;;;7.38;2.30;;;13.70;99.90;;;;;;5507242;26;20016;-73
2024/04/14 00:33:00;;;;;;;6.85;1.65;;;13.60;99.90;;;;;;5498935;26;20446;-73
2024/04/14 00:35:26;;;;;;;8.15;1.77;;;13.60;99.90;;;;;;5496090;26;20094;-73
2024/04/14 00:37:55;;;;;;;8.65;1.70;;;13.40;99.90;;;;;;5500514;26;20041;-73
2024/04/14 00:40:21;;;;;;;12.30;2.20;;;13.40;99.90;;;;;;5500049;26;20005;-73
2024/04/14 00:42:47;;;;;;;9.10;1.83;;;13.30;99.90;;;;;;5513180;26;20012;-73
2024/04/14 00:45:13;;;;;;;11.15;2.22;;;13.20;99.90;;;;;;5501537;26;20077;-73
2024/04/14 00:47:59;;;;;;;10.75;2.13;;;13.20;99.90;;;;;;5485599;26;20406;-73
2024/04/14 00:50:25;;;;;;;8.48;1.92;;;13.10;99.90;;;;;;5507905;26;20016;-73
2024/04/14 00:52:52;;;;;;;10.50;2.15;;;13.00;99.90;;;;;;5517042;26;20015;-73
2024/04/14 00:55:19;;;;;;;8.50;2.20;;;13.00;99.90;;;;;;5510078;26;20016;-73
2024/04/14 00:57:47;;;;;;;7.35;1.40;;;12.90;99.90;;;;;;5503771;26;20098;-73
2024/04/14 01:00:15;;;;;;;5.82;1.15;;;12.80;99.90;;;;;;5505540;26;20477;-73
2024/04/14 01:02:41;;;;;;;8.20;1.30;;;12.70;99.90;;;;;;5509530;26;20006;-73
2024/04/14 01:05:07;;;;;;;4.88;1.00;;;12.60;99.90;;;;;;5506358;26;20012;-73
2024/04/14 01:07:33;;;;;;;5.13;0.90;;;12.50;99.90;;;;;;5515876;26;20006;-74
2024/04/14 01:09:59;;;;;;;7.10;1.02;;;12.40;99.90;;;;;;5476170;26;20034;-74
2024/04/14 01:12:24;;;;;;;6.25;1.02;;;12.30;99.90;;;;;;5511952;26;20001;-74
2024/04/14 01:14:51;;;;;;;8.50;1.65;;;12.30;99.90;;;;;;5500437;26;20006;-73
2024/04/14 01:17:17;;;;;;;9.07;1.48;;;12.20;99.90;;;;;;5494923;26;20002;-73
2024/04/14 01:19:42;;;;;;;7.53;1.23;;;12.10;99.90;;;;;;5498378;26;20014;-74
2024/04/14 01:22:08;;;;;;;6.90;1.00;;;12.00;99.90;;;;;;5499197;26;20002;-73
2024/04/14 01:24:34;;;;;;;3.83;0.90;;;12.00;99.90;;;;;;5497343;26;20002;-73
2024/04/14 01:27:01;;;;;;;4.93;0.75;;;11.90;99.90;;;;;;5497249;26;20013;-73
2024/04/14 01:29:26;;;;;;;6.13;1.20;;;11.80;99.90;;;;;;5501922;26;20006;-73
2024/04/14 01:31:52;;;;;;;7.13;1.17;;;11.70;99.90;;;;;;5508069;26;20437;-73
2024/04/14 01:34:19;;;;;;;5.45;0.98;;;11.70;99.90;;;;;;5506183;26;20005;-74
2024/04/14 01:36:45;;;;;;;6.70;1.02;;;11.60;99.90;;;;;;5506605;26;20006;-74
2024/04/14 01:39:11;;;;;;;7.25;1.30;;;11.60;99.90;;;;;;5510416;26;20505;-73
2024/04/14 01:41:37;;;;;;;6.55;1.17;;;11.50;99.90;;;;;;5506610;26;20451;-73
2024/04/14 01:44:23;;;;;;;7.45;1.48;;;11.40;99.90;;;;;;5480276;26;20085;-73
2024/04/14 01:46:51;;;;;;;6.63;1.38;;;11.40;99.90;;;;;;5511417;26;20548;-73
2024/04/14 01:49:17;;;;;;;9.02;1.15;;;11.30;99.90;;;;;;5503108;26;20317;-73
2024/04/14 01:51:42;;;;;;;7.88;1.05;;;11.30;99.90;;;;;;5503919;26;20430;-73
2024/04/14 01:54:21;;;;;;;10.40;1.20;;;11.20;99.90;;;;;;5512306;26;20005;-73
2024/04/14 01:56:47;;;;;;;8.73;1.40;;;11.20;99.90;;;;;;5501926;26;20477;-73
2024/04/14 01:59:13;;;;;;;5.15;1.40;;;11.10;99.90;;;;;;5516187;26;20080;-73
2024/04/14 02:01:39;;;;;;;5.93;1.00;;;11.10;99.90;;;;;;5506039;26;20021;-73
2024/04/14 02:04:04;;;;;;;6.35;0.90;;;11.10;99.90;;;;;;5504129;26;20006;-73
2024/04/14 02:06:30;;;;;;;9.30;1.40;;;11.00;99.90;;;;;;5498342;26;20006;-73
2024/04/14 02:08:56;;;;;;;6.80;1.10;;;10.90;99.90;;;;;;5500233;26;20009;-73
2024/04/14 02:11:22;;;;;;;8.05;1.50;;;10.90;99.90;;;;;;5491609;26;20014;-73
2024/04/14 02:13:48;;;;;;;7.70;1.63;;;10.90;99.90;;;;;;5512673;26;20036;-73
2024/04/14 02:16:14;;;;;;;9.05;1.98;;;10.90;99.90;;;;;;5503783;26;20006;-73
2024/04/14 02:18:40;;;;;;;6.47;1.25;;;10.80;99.90;;;;;;5502828;26;20014;-73
2024/04/14 02:21:06;;;;;;;6.72;1.00;;;10.80;99.90;;;;;;5506230;26;20002;-73
2024/04/14 02:23:32;;;;;;;7.88;1.33;;;10.80;99.90;;;;;;5513829;26;20016;-73
2024/04/14 02:26:19;;;;;;;10.90;1.23;;;10.70;99.90;;;;;;5486586;26;20001;-73
2024/04/14 02:28:46;;;;;;;8.23;1.50;;;10.70;99.90;;;;;;5505706;26;20421;-73
2024/04/14 02:31:12;;;;;;;7.43;1.15;;;10.70;99.90;;;;;;5512121;26;20006;-73
2024/04/14 02:33:40;;;;;;;10.02;1.52;;;10.60;99.90;;;;;;5503314;26;20310;-73
2024/04/14 02:36:06;;;;;;;6.95;1.05;;;10.60;99.90;;;;;;5508374;26;19998;-73
2024/04/14 02:38:32;;;;;;;8.48;1.13;;;10.60;99.90;;;;;;5499633;26;20005;-73
2024/04/14 02:40:59;;;;;;;10.43;1.50;;;10.50;99.90;;;;;;5506789;26;20437;-73
2024/04/14 02:43:26;;;;;;;6.82;1.20;;;10.50;99.90;;;;;;5500580;26;20001;-73
2024/04/14 02:46:03;;;;;;;9.18;1.35;;;10.50;99.90;;;;;;5507317;26;20017;-73
2024/04/14 02:48:50;;;;;;;7.45;1.00;;;10.40;99.90;;;;;;5477647;26;20549;-73
2024/04/14 02:51:36;;;;;;;8.70;1.73;;;10.40;99.90;;;;;;5489219;26;20069;-73
2024/04/14 02:54:22;;;;;;;10.02;1.10;;;10.40;99.90;;;;;;5471244;26;20114;-73
2024/04/14 02:56:48;;;;;;;11.98;2.03;;;10.40;99.90;;;;;;5495141;26;20006;-73
2024/04/14 02:59:37;;;;;;;9.45;1.50;;;10.30;99.90;;;;;;5472602;26;20335;-73
2024/04/14 03:02:03;;;;;;;10.43;1.45;;;10.30;99.90;;;;;;5504217;26;20600;-73
2024/04/14 03:04:29;;;;;;;10.25;1.67;;;10.20;99.90;;;;;;5499873;26;20009;-73
2024/04/14 03:06:55;;;;;;;8.52;1.33;;;10.20;99.90;;;;;;5511290;26;20016;-73
2024/04/14 03:09:22;;;;;;;9.55;1.40;;;10.20;99.90;;;;;;5506837;26;20057;-72
2024/04/14 03:12:01;;;;;;;8.45;1.52;;;10.20;99.90;;;;;;5504312;26;20005;-73
2024/04/14 03:14:28;;;;;;;10.23;1.48;;;10.20;99.90;;;;;;5468900;26;20017;-73
2024/04/14 03:16:54;;;;;;;6.68;1.25;;;10.10;99.90;;;;;;5511450;26;20006;-72
2024/04/14 03:19:40;;;;;;;8.32;1.23;;;10.00;99.90;;;;;;5473229;26;20346;-72
2024/04/14 03:22:25;;;;;;;8.55;1.35;;;10.10;99.90;;;;;;5477387;26;20006;-73
2024/04/14 03:25:12;;;;;;;9.63;1.35;;;10.00;99.90;;;;;;5457999;26;20001;-73
2024/04/14 03:27:58;;;;;;;10.32;1.20;;;10.00;99.90;;;;;;5475684;26;20029;-73
2024/04/14 03:30:45;;;;;;;12.90;1.27;;;10.00;99.90;;;;;;5474938;26;20001;-73
2024/04/14 03:33:31;;;;;;;11.02;1.75;;;9.90;99.90;;;;;;5455380;26;20346;-73
2024/04/14 03:36:16;;;;;;;7.75;1.23;;;9.80;99.90;;;;;;5474543;26;19997;-73
2024/04/14 03:39:02;;;;;;;11.25;1.65;;;9.90;99.90;;;;;;5485100;26;20357;-73
2024/04/14 03:41:49;;;;;;;11.60;2.10;;;9.90;99.90;;;;;;5476587;26;20002;-73
2024/04/14 03:44:34;;;;;;;8.15;1.30;;;9.80;99.90;;;;;;5463695;26;20005;-72
2024/04/14 03:47:20;;;;;;;12.02;1.92;;;9.90;99.90;;;;;;5475111;26;20041;-73
2024/04/14 03:50:06;;;;;;;11.18;1.80;;;9.90;99.90;;;;;;5452605;26;20394;-73
2024/04/14 03:52:52;;;;;;;15.88;1.58;;;9.80;99.90;;;;;;5458455;26;20582;-73
2024/04/14 03:55:38;;;;;;;8.20;1.00;;;9.80;99.90;;;;;;5488093;26;20005;-73
2024/04/14 03:58:23;;;;;;;9.10;1.58;;;9.80;99.90;;;;;;5479135;26;20013;-73
2024/04/14 04:01:09;;;;;;;8.68;1.52;;;9.80;99.90;;;;;;5484523;26;20483;-72
2024/04/14 04:03:55;;;;;;;11.50;1.75;;;9.80;99.90;;;;;;5474527;26;20062;-73
2024/04/14 04:06:41;;;;;;;8.95;1.75;;;9.80;99.90;;;;;;5476132;26;20009;-73
2024/04/14 04:09:26;;;;;;;11.00;1.73;;;9.80;99.90;;;;;;5483363;26;20009;-72
2024/04/14 04:12:12;;;;;;;6.22;1.25;;;9.70;99.90;;;;;;5474916;26;20005;-73
2024/04/14 04:14:58;;;;;;;9.95;1.65;;;9.70;99.90;;;;;;5481785;26;20048;-72
2024/04/14 04:17:44;;;;;;;9.20;1.50;;;9.70;99.90;;;;;;5478704;26;19997;-72
2024/04/14 04:20:29;;;;;;;12.95;2.00;;;9.70;99.90;;;;;;5476159;26;20025;-72
2024/04/14 04:23:15;;;;;;;8.25;1.00;;;9.60;99.90;;;;;;5476924;26;19999;-72
2024/04/14 04:26:01;;;;;;;10.00;1.38;;;9.60;99.90;;;;;;5482271;26;20465;-72
2024/04/14 04:28:47;;;;;;;14.98;1.50;;;9.60;99.90;;;;;;5475107;26;20013;-72
2024/04/14 04:31:34;;;;;;;7.00;1.10;;;9.50;99.90;;;;;;5475263;26;20005;-72
2024/04/14 04:33:59;;;;;;;11.38;1.70;;;9.50;99.90;;;;;;5506230;26;20321;-72
2024/04/14 04:36:25;;;;;;;11.40;1.08;;;9.40;99.90;;;;;;5496249;26;20001;-72
2024/04/14 04:38:59;;;;;;;9.10;1.02;;;9.40;99.90;;;;;;5465505;26;20450;-72
2024/04/14 04:41:25;;;;;;;8.45;1.38;;;9.40;99.90;;;;;;5497169;26;20090;-72
2024/04/14 04:43:51;;;;;;;10.13;1.50;;;9.30;99.90;;;;;;5502607;26;20473;-72
2024/04/14 04:46:17;;;;;;;7.97;1.17;;;9.30;99.90;;;;;;5506818;26;20078;-72
2024/04/14 04:48:45;;;;;;;8.95;1.58;;;9.30;99.90;;;;;;5501357;26;20017;-72
2024/04/14 04:51:10;;;;;;;11.05;1.50;;;9.30;99.90;;;;;;5506091;26;20113;-72
2024/04/14 04:53:36;;;;;;;8.90;1.52;;;9.30;99.90;;;;;;5503911;26;20016;-72
2024/04/14 04:56:02;;;;;;;10.55;1.27;;;9.20;99.90;;;;;;5499561;26;20016;-72
2024/04/14 04:58:28;;;;;;;10.15;1.25;;;9.20;99.90;;;;;;5474755;26;20006;-72
2024/04/14 05:00:56;;;;;;;10.25;1.55;;;9.20;99.90;;;;;;5501063;26;20006;-72
2024/04/14 05:03:23;;;;;;;9.25;1.02;;;9.20;99.90;;;;;;5502346;26;20013;-72
2024/04/14 05:05:59;;;;;;;9.75;1.30;;;9.20;99.90;;;;;;5502140;26;20210;-72
2024/04/14 05:08:26;;;;;;;8.73;1.38;;;9.20;99.90;;;;;;5503240;26;20005;-72
2024/04/14 05:10:55;;;;;;;10.23;1.10;;;9.20;99.90;;;;;;5510568;26;20429;-72
2024/04/14 05:13:22;;;;;;;7.30;1.10;;;9.20;99.90;;;;;;5501475;26;20028;-72
2024/04/14 05:15:48;;;;;;;13.88;1.10;;;9.20;99.90;;;;;;5508755;26;20034;-72
2024/04/14 05:18:14;;;;;;;9.45;1.65;;;9.20;99.90;;;;;;5513216;26;20006;-72
2024/04/14 05:20:40;;;;;;;10.07;1.35;;;9.20;99.90;;;;;;5513203;26;20006;-72
2024/04/14 05:23:07;;;;;;;8.25;1.85;;;9.20;99.90;;;;;;5500450;26;20461;-72
2024/04/14 05:25:37;;;;;;;11.82;1.20;;;9.20;99.90;;;;;;5507229;26;20450;-72
2024/04/14 05:28:04;;;;;;;7.55;1.35;;;9.20;99.90;;;;;;5499105;26;20082;-72
2024/04/14 05:30:29;;;;;;;7.80;1.13;;;9.30;99.90;;;;;;5508566;26;20005;-72
2024/04/14 05:32:59;;;;;;;9.95;1.33;;;9.30;99.90;;;;;;5474345;26;20006;-72
2024/04/14 05:35:24;;;;;;;10.02;1.70;;;9.30;99.90;;;;;;5500909;26;20083;-72
2024/04/14 05:37:50;;;;;;;10.13;1.15;;;9.30;99.90;;;;;;5499651;26;20009;-72
2024/04/14 05:40:16;;;;;;;8.52;1.60;;;9.30;99.90;;;;;;5502523;26;20342;-72
2024/04/14 05:42:42;;;;;;;9.43;1.40;;;9.40;99.90;;;;;;5509127;26;20009;-72
2024/04/14 05:45:08;;;;;;;7.93;1.17;;;9.40;99.90;;;;;;5512217;26;20460;-73
2024/04/14 05:47:35;;;;;;;7.82;1.30;;;9.40;99.90;;;;;;5501317;26;20078;-72
2024/04/14 05:50:00;;;;;;;8.98;1.33;;;9.50;99.90;;;;;;5511036;26;20006;-72
2024/04/14 05:52:26;;;;;;;6.93;1.25;;;9.60;99.90;;;;;;5512725;26;20069;-72
2024/04/14 05:54:52;;;;;;;13.13;1.80;;;9.70;99.90;;;;;;5512401;26;20041;-72
2024/04/14 05:57:18;;;;;;;7.70;1.35;;;9.70;99.90;;;;;;5512395;26;20009;-72
2024/04/14 05:59:47;;;;;;;7.82;1.83;;;9.70;99.90;;;;;;5504836;26;20010;-72
2024/04/14 06:02:15;;;;;;;9.30;1.20;;;9.80;99.90;;;;;;5473819;26;20224;-72
2024/04/14 06:04:40;;;;;;;10.88;1.20;;;9.80;99.90;;;;;;5498807;26;20015;-72
2024/04/14 06:07:06;;;;;;;7.80;1.58;;;9.80;99.90;;;;;;5514083;26;21013;-72
2024/04/14 06:09:34;;;;;;;8.10;1.17;;;9.90;99.90;;;;;;5511671;26;20009;-72
2024/04/14 06:12:07;;;;;;;9.60;1.05;;;9.90;99.90;;;;;;5510142;26;20500;-72
2024/04/14 06:14:33;;;;;;;8.50;1.15;;;10.10;99.90;;;;;;5504800;26;20005;-72
2024/04/14 06:16:58;;;;;;;7.43;1.58;;;10.10;99.90;;;;;;5507415;26;20021;-72
2024/04/14 06:19:24;;;;;;;4.95;0.70;;;10.20;99.90;;;;;;5519309;26;20082;-72
2024/04/14 06:21:50;;;;;;;10.15;1.75;;;10.30;99.90;;;;;;5496004;26;20078;-72
2024/04/14 06:24:16;;;;;;;7.28;1.77;;;10.30;99.90;;;;;;5510967;26;20412;-72
2024/04/14 06:26:42;;;;;;;7.32;0.95;;;10.30;99.90;;;;;;5499141;26;20540;-72
2024/04/14 06:29:07;;;;;;;6.47;0.98;;;10.40;99.90;;;;;;5510092;26;20076;-72
2024/04/14 06:31:33;;;;;;;7.13;1.27;;;10.50;99.90;;;;;;5505277;26;20005;-73
2024/04/14 06:34:00;;;;;;;5.65;0.82;;;10.60;99.90;;;;;;5516382;26;20009;-73
2024/04/14 06:36:25;;;;;;;7.68;0.88;;;10.70;99.90;;;;;;5500046;26;20345;-73
2024/04/14 06:38:53;;;;;;;6.15;0.80;;;10.70;99.90;;;;;;5508345;26;20040;-73
2024/04/14 06:41:19;;;;;;;7.80;1.10;;;10.80;99.90;;;;;;5507893;26;20250;-73
2024/04/14 06:43:45;;;;;;;5.38;0.80;;;10.80;99.90;;;;;;5472516;26;20013;-73
2024/04/14 06:46:10;;;;;;;7.82;1.25;;;11.00;99.90;;;;;;5515176;26;20009;-73
2024/04/14 06:48:36;;;;;;;7.78;1.20;;;11.10;99.90;;;;;;5508533;26;20342;-73
2024/04/14 06:51:02;;;;;;;7.50;0.90;;;11.20;99.90;;;;;;5509803;26;20006;-73
2024/04/14 06:53:28;;;;;;;9.18;1.02;;;11.30;99.90;;;;;;5508264;26;20017;-73
2024/04/14 06:55:55;;;;;;;6.55;1.20;;;11.30;99.90;;;;;;5500418;26;20014;-73
2024/04/14 06:58:21;;;;;;;4.68;0.88;;;11.50;99.90;;;;;;5505816;26;20037;-73
2024/04/14 07:00:47;;;;;;;9.43;1.52;;;11.50;99.90;;;;;;5508546;26;20338;-73
2024/04/14 07:03:14;;;;;;;5.97;0.85;;;11.60;99.90;;;;;;5499145;26;20010;-73
2024/04/14 07:05:40;;;;;;;6.90;1.27;;;11.80;99.90;;;;;;5499309;26;20120;-73
2024/04/14 07:08:06;;;;;;;7.13;0.90;;;11.80;99.90;;;;;;5498281;26;20470;-73
2024/04/14 07:10:32;;;;;;;5.78;0.85;;;11.90;99.90;;;;;;5502334;26;20433;-74
2024/04/14 07:12:58;;;;;;;6.00;1.00;;;11.90;99.90;;;;;;5501666;26;20014;-73
2024/04/14 07:15:23;;;;;;;7.45;0.73;;;12.10;99.90;;;;;;5504879;26;21586;-71
2024/04/14 07:17:49;;;;;;;4.75;0.95;;;12.20;99.90;;;;;;5471757;26;20350;-71
2024/04/14 07:20:16;;;;;;;4.93;0.60;;;12.30;99.90;;;;;;5498969;26;19993;-71
2024/04/14 07:22:44;;;;;;;5.45;0.82;;;12.30;99.90;;;;;;5480118;26;19998;-72
2024/04/14 07:25:10;;;;;;;5.53;0.93;;;12.40;99.90;;;;;;5511093;26;19998;-71
2024/04/14 07:27:36;;;;;;;4.40;1.08;;;12.30;99.90;;;;;;5506884;26;20016;-71
2024/04/14 07:30:03;;;;;;;3.65;0.60;;;12.40;99.90;;;;;;5507461;26;20005;-71
2024/04/14 07:32:29;;;;;;;7.88;0.57;;;12.40;99.90;;;;;;5505920;26;20021;-71
2024/04/14 07:34:55;;;;;;;5.20;0.60;;;12.50;99.90;;;;;;5505505;26;20012;-71
2024/04/14 07:37:21;;;;;;;4.30;0.80;;;12.60;99.90;;;;;;5483311;26;20005;-72
2024/04/14 07:39:47;;;;;;;4.90;0.80;;;12.60;99.90;;;;;;5506276;26;20460;-72
2024/04/14 07:42:13;;;;;;;5.15;0.80;;;12.70;99.90;;;;;;5498127;26;20077;-72
2024/04/14 07:44:39;;;;;;;6.95;0.80;;;12.80;99.90;;;;;;5505470;26;20009;-72
2024/04/14 07:47:05;;;;;;;4.10;0.80;;;12.80;99.90;;;;;;5475200;26;20205;-72
2024/04/14 07:49:31;;;;;;;7.80;1.00;;;12.90;99.90;;;;;;5504519;26;20020;-71
2024/04/14 07:51:57;;;;;;;5.35;0.77;;;13.00;99.90;;;;;;5498172;26;20149;-72
2024/04/14 07:54:23;;;;;;;4.38;0.90;;;13.10;99.90;;;;;;5502730;26;20006;-72
2024/04/14 07:56:49;;;;;;;5.97;0.77;;;13.30;99.90;;;;;;5498118;26;20066;-72
2024/04/14 07:59:14;;;;;;;8.70;1.00;;;13.40;99.90;;;;;;5496441;26;20369;-78
2024/04/14 08:01:40;;;;;;;7.93;0.98;;;13.70;99.90;;;;;;5498842;26;20118;-77
2024/04/14 08:04:06;;;;;;;6.63;0.85;;;14.10;99.90;;;;;;5494943;26;20020;-73
2024/04/14 08:06:33;;;;;;;6.40;0.88;;;14.30;99.90;;;;;;5500110;26;20077;-77
2024/04/14 08:08:59;;;;;;;8.40;1.00;;;14.50;99.90;;;;;;5497734;26;20513;-74
2024/04/14 08:11:25;;;;;;;5.40;0.63;;;14.50;99.90;;;;;;5503334;26;20358;-73
2024/04/14 08:13:51;;;;;;;9.10;1.17;;;14.60;99.90;;;;;;5504704;26;20001;-73
2024/04/14 08:16:17;;;;;;;4.57;0.85;;;14.80;99.90;;;;;;5505431;26;20429;-75
2024/04/14 08:18:45;;;;;;;20.15;14.50;;;15.20;99.90;;;;;;5504913;26;20005;-73
2024/04/14 08:21:11;;;;;;;5.80;1.33;;;15.60;99.90;;;;;;5498039;26;19998;-74
2024/04/14 08:23:37;;;;;;;6.03;0.90;;;16.10;99.90;;;;;;5504675;26;20016;-74
2024/04/14 08:26:03;;;;;;;129.40;113.60;;;16.80;99.90;;;;;;5507927;25;19998;-71
2024/04/14 08:28:29;;;;;;;6.95;2.47;;;17.40;99.90;;;;;;5503503;26;20081;-74
2024/04/14 08:30:55;;;;;;;5.05;0.90;;;17.80;98.90;;;;;;5508571;26;20596;-74
2024/04/14 08:33:21;;;;;;;6.75;0.98;;;18.00;95.70;;;;;;5500295;26;20446;-74
2024/04/14 08:35:47;;;;;;;7.68;1.05;;;18.10;93.50;;;;;;5474290;26;20002;-75
2024/04/14 08:38:13;;;;;;;5.13;0.80;;;18.10;91.90;;;;;;5482287;26;20019;-74
2024/04/14 08:40:39;;;;;;;4.47;0.80;;;18.20;91.80;;;;;;5503014;26;20098;-74
2024/04/14 08:43:05;;;;;;;5.13;0.73;;;17.80;91.30;;;;;;5499183;26;20090;-74
2024/04/14 08:45:32;;;;;;;4.93;1.08;;;17.70;91.90;;;;;;5499835;26;20075;-75
2024/04/14 08:48:01;;;;;;;6.18;1.27;;;17.80;91.60;;;;;;5500271;26;20035;-79
2024/04/14 08:50:28;;;;;;;5.13;0.80;;;18.10;92.70;;;;;;5501150;26;19993;-81
2024/04/14 08:52:54;;;;;;;4.05;0.82;;;18.50;91.80;;;;;;5485106;26;20017;-72
2024/04/14 08:55:20;;;;;;;5.15;1.00;;;18.80;91.40;;;;;;5495545;26;20006;-72
2024/04/14 08:57:47;;;;;;;34.30;28.05;;;18.60;90.00;;;;;;5498966;26;20082;-72
2024/04/14 09:00:18;;;;;;;6.60;1.25;;;17.80;89.40;;;;;;5496951;26;20020;-70
2024/04/14 09:02:45;;;;;;;5.57;0.88;;;17.30;89.70;;;;;;5499413;26;20073;-73
2024/04/14 09:05:15;;;;;;;7.18;1.00;;;17.50;90.20;;;;;;5507659;26;20013;-73
2024/04/14 09:07:44;;;;;;;7.88;1.00;;;18.00;90.50;;;;;;5503524;26;20017;-73
2024/04/14 09:10:10;;;;;;;7.07;1.20;;;18.60;90.70;;;;;;5473039;26;20543;-73
2024/04/14 09:12:36;;;;;;;6.03;1.05;;;19.10;90.10;;;;;;5511968;26;20009;-72
2024/04/14 09:15:04;;;;;;;5.07;0.80;;;19.20;88.30;;;;;;5508637;26;20034;-73
2024/04/14 09:17:32;;;;;;;7.55;1.45;;;19.40;85.20;;;;;;5511244;26;20001;-71
2024/04/14 09:19:58;;;;;;;8.10;1.00;;;19.70;87.40;;;;;;5503324;26;20020;-73
2024/04/14 09:22:24;;;;;;;3.63;0.90;;;19.90;86.20;;;;;;5511477;26;20005;-74
2024/04/14 09:24:53;;;;;;;6.35;1.23;;;20.00;84.80;;;;;;5506795;26;20016;-73
2024/04/14 09:27:20;;;;;;;6.45;1.23;;;19.90;81.40;;;;;;5503228;26;20170;-73
2024/04/14 09:29:46;;;;;;;5.85;1.02;;;19.80;82.10;;;;;;5507934;26;20010;-73
2024/04/14 09:32:12;;;;;;;3.85;0.90;;;19.40;82.30;;;;;;5504447;26;20016;-73
2024/04/14 09:34:39;;;;;;;4.70;0.90;;;19.30;82.20;;;;;;5475142;26;20002;-73
2024/04/14 09:37:08;;;;;;;6.72;1.15;;;19.60;81.40;;;;;;5501991;26;20002;-74
2024/04/14 09:39:35;;;;;;;3.85;0.73;;;19.80;81.00;;;;;;5509734;26;20020;-75
2024/04/14 09:42:03;;;;;;;5.85;1.05;;;20.10;80.00;;;;;;5511830;26;20409;-75
2024/04/14 09:44:30;;;;;;;7.72;1.00;;;20.10;78.40;;;;;;5504693;26;20563;-75
2024/04/14 09:46:57;;;;;;;7.60;1.27;;;20.10;79.30;;;;;;5471515;26;20037;-75
2024/04/14 09:49:28;;;;;;;5.68;1.25;;;20.30;78.50;;;;;;5501323;26;20096;-75
2024/04/14 09:51:55;;;;;;;6.50;1.13;;;20.10;77.30;;;;;;5509307;26;20019;-75
2024/04/14 09:54:22;;;;;;;7.00;1.25;;;19.60;76.40;;;;;;5500647;26;20014;-75
2024/04/14 09:56:49;;;;;;;8.52;1.10;;;18.90;77.40;;;;;;5507111;26;20005;-75
2024/04/14 09:59:14;;;;;;;9.05;1.38;;;18.30;78.50;;;;;;5510720;26;20015;-74
2024/04/14 10:01:45;;;;;;;7.18;1.35;;;17.40;80.20;;;;;;5499863;26;20013;-74
2024/04/14 10:04:12;;;;;;;4.30;0.65;;;16.80;82.10;;;;;;5501604;26;20010;-74
2024/04/14 10:06:40;;;;;;;5.65;1.20;;;16.80;82.90;;;;;;5485723;26;20516;-75
2024/04/14 10:09:10;;;;;;;7.40;1.10;;;17.20;84.90;;;;;;5503751;26;20005;-75
2024/04/14 10:11:36;;;;;;;5.95;0.88;;;17.60;85.00;;;;;;5498658;26;20370;-76
2024/04/14 10:14:01;;;;;;;6.70;1.02;;;18.00;85.40;;;;;;5501045;26;20135;-76
2024/04/14 10:16:27;;;;;;;4.97;0.98;;;18.50;82.70;;;;;;5501836;26;20005;-75
2024/04/14 10:19:01;;;;;;;7.45;1.17;;;18.50;81.60;;;;;;5488669;26;20406;-74
2024/04/14 10:21:29;;;;;;;5.30;0.90;;;18.10;80.90;;;;;;5512422;26;20377;-74
2024/04/14 10:23:56;;;;;;;6.90;3.75;;;17.30;78.30;;;;;;5489381;26;20006;-74
2024/04/14 10:26:22;;;;;;;4.00;1.25;;;16.60;77.50;;;;;;5513190;26;20039;-73
2024/04/14 10:28:53;;;;;;;5.05;0.95;;;16.10;76.60;;;;;;5485571;26;20006;-73
2024/04/14 10:31:26;;;;;;;5.80;1.05;;;15.90;77.80;;;;;;5502235;26;20006;-73
2024/04/14 10:34:06;;;;;;;3.70;0.90;;;16.00;80.30;;;;;;5503822;26;20536;-73
2024/04/14 10:36:33;;;;;;;5.57;1.13;;;16.60;81.70;;;;;;5503804;26;20187;-74
2024/04/14 10:39:00;;;;;;;3.80;0.65;;;17.30;82.10;;;;;;5506899;26;20002;-74
2024/04/14 10:41:26;;;;;;;2.85;1.00;;;17.50;76.00;;;;;;5505177;26;20055;-74
2024/04/14 10:43:52;;;;;;;5.18;0.98;;;17.50;73.10;;;;;;5502626;26;20005;-74
2024/04/14 10:46:17;;;;;;;3.20;0.80;;;17.30;73.90;;;;;;5510710;26;20017;-74
2024/04/14 10:48:44;;;;;;;3.97;0.73;;;17.50;75.60;;;;;;5507177;26;20006;-74
2024/04/14 10:51:10;;;;;;;3.80;0.68;;;17.80;76.90;;;;;;5506447;26;20473;-75
2024/04/14 10:53:37;;;;;;;5.40;0.80;;;18.20;74.00;;;;;;5505720;26;20019;-74
2024/04/14 10:56:03;;;;;;;6.30;0.93;;;18.30;70.10;;;;;;5512223;26;20021;-75
2024/04/14 10:58:30;;;;;;;5.07;1.10;;;18.20;71.20;;;;;;5488225;26;20002;-75
2024/04/14 11:00:56;;;;;;;3.17;0.73;;;18.20;70.80;;;;;;5511910;26;20016;-74
2024/04/14 11:03:23;;;;;;;4.35;0.65;;;18.40;71.80;;;;;;5468255;26;20002;-74
2024/04/14 11:05:50;;;;;;;6.00;1.45;;;18.50;71.20;;;;;;5505144;26;20008;-74
2024/04/14 11:08:16;;;;;;;6.78;1.00;;;18.10;69.20;;;;;;5515014;26;20028;-75
2024/04/14 11:10:44;;;;;;;4.57;0.93;;;17.70;71.10;;;;;;5504826;26;20020;-74
2024/04/14 11:13:15;;;;;;;6.95;1.40;;;17.60;72.90;;;;;;5505557;26;20035;-72
2024/04/14 11:15:45;;;;;;;6.50;1.13;;;17.40;72.80;;;;;;5504183;26;20005;-74
2024/04/14 11:18:11;;;;;;;3.47;0.70;;;17.40;75.30;;;;;;5505835;26;20001;-76
2024/04/14 11:20:46;;;;;;;6.50;0.95;;;17.30;73.40;;;;;;5508565;26;20041;-76
2024/04/14 11:23:12;;;;;;;6.97;0.93;;;17.50;75.90;;;;;;5506665;26;20406;-80
2024/04/14 11:25:38;;;;;;;4.60;1.00;;;17.80;75.50;;;;;;5502096;26;20972;-82
2024/04/14 11:28:04;;;;;;;7.40;1.27;;;18.20;76.20;;;;;;5500988;26;20053;-76
2024/04/14 11:30:30;;;;;;;5.78;0.80;;;18.30;75.20;;;;;;5507263;26;20016;-78
2024/04/14 11:32:57;;;;;;;3.50;0.85;;;18.50;75.10;;;;;;5503664;26;20023;-76
2024/04/14 11:35:23;;;;;;;4.90;0.70;;;18.70;72.90;;;;;;5503824;26;20004;-77
2024/04/14 11:37:54;;;;;;;4.60;1.15;;;18.60;70.40;;;;;;5513529;26;20016;-75
2024/04/14 11:40:21;;;;;;;4.78;0.60;;;18.60;71.50;;;;;;5504127;26;20020;-76
2024/04/14 11:42:50;;;;;;;4.18;0.65;;;18.40;71.20;;;;;;5512887;26;20073;-76
2024/04/14 11:45:16;;;;;;;5.25;0.80;;;18.60;72.00;;;;;;5506036;26;20078;-75
2024/04/14 11:47:43;;;;;;;5.18;0.90;;;19.10;71.70;;;;;;5505772;26;20002;-76
2024/04/14 11:50:10;;;;;;;4.50;1.30;;;19.60;71.50;;;;;;5511416;26;20137;-75
2024/04/14 11:52:36;;;;;;;4.13;0.93;;;20.00;68.40;;;;;;5506601;26;20346;-74
2024/04/14 11:55:06;;;;;;;3.35;0.80;;;20.30;68.10;;;;;;5499476;26;20335;-74
2024/04/14 11:57:32;;;;;;;6.00;1.00;;;20.60;67.80;;;;;;5483995;26;20016;-74
2024/04/14 11:59:58;;;;;;;4.72;1.15;;;20.80;66.10;;;;;;5509303;26;20013;-74
2024/04/14 12:02:26;;;;;;;5.65;0.88;;;20.90;67.30;;;;;;5500542;26;20646;-70
2024/04/14 12:04:53;;;;;;;5.35;0.90;;;21.00;67.10;;;;;;5495827;26;20015;-70
2024/04/14 12:07:19;;;;;;;4.40;0.95;;;20.80;65.00;;;;;;5497485;26;20529;-70
2024/04/14 12:09:46;;;;;;;5.10;1.00;;;20.90;66.70;;;;;;5498722;26;20006;-69
2024/04/14 12:12:13;;;;;;;15.40;10.18;;;20.90;65.40;;;;;;5505288;26;20005;-69
2024/04/14 12:14:40;;;;;;;8.65;1.50;;;20.80;64.80;;;;;;5504238;26;20028;-68
2024/04/14 12:17:07;;;;;;;6.15;1.20;;;21.10;67.00;;;;;;5500900;26;20434;-68
2024/04/14 12:19:33;;;;;;;3.83;0.70;;;21.50;67.40;;;;;;5506383;26;20006;-68
2024/04/14 12:21:59;;;;;;;5.68;0.98;;;21.60;63.50;;;;;;5501348;26;20426;-69
2024/04/14 12:24:26;;;;;;;5.82;0.90;;;21.60;62.20;;;;;;5501162;26;20017;-74
2024/04/14 12:26:52;;;;;;;5.22;1.00;;;21.40;62.80;;;;;;5507899;26;20029;-73
2024/04/14 12:29:18;;;;;;;4.60;0.90;;;21.60;61.40;;;;;;5507444;26;20010;-74
2024/04/14 12:31:45;;;;;;;5.15;0.95;;;21.40;61.40;;;;;;5510082;26;20006;-76
2024/04/14 12:34:11;;;;;;;9.27;1.30;;;21.00;60.20;;;;;;5515079;26;20014;-76
2024/04/14 12:36:36;;;;;;;4.63;0.90;;;20.90;60.40;;;;;;5477175;26;20055;-75
2024/04/14 12:39:02;;;;;;;3.67;0.60;;;21.20;61.20;;;;;;5510837;26;20005;-75
2024/04/14 12:41:29;;;;;;;4.55;0.65;;;21.30;60.20;;;;;;5505399;26;20012;-74
2024/04/14 12:43:55;;;;;;;5.22;0.85;;;21.50;59.00;;;;;;5479239;26;20006;-75
2024/04/14 12:46:21;;;;;;;6.35;0.95;;;21.50;58.10;;;;;;5508949;26;20446;-75
2024/04/14 12:48:49;;;;;;;4.25;0.77;;;21.40;57.40;;;;;;5483747;26;20077;-75
2024/04/14 12:51:15;;;;;;;3.67;0.60;;;21.50;57.20;;;;;;5483566;26;20009;-74
2024/04/14 12:53:40;;;;;;;4.93;0.75;;;21.40;56.20;;;;;;5499032;26;20009;-74
2024/04/14 12:56:06;;;;;;;2.85;0.50;;;21.60;56.30;;;;;;5500853;26;20088;-75